Time;durP1;ratioP1;P1;durP2;ratioP2;P2;SDS_P1;SDS_P2;PMS_P1;PMS_P2;Temp;Humidity;BMP_temperature;BMP_pressure;BME280_temperature;BME280_humidity;BME280_pressure;Samples;Min_cycle;Max_cycle;Signal;HPM_P1;HPM_P2
2022/11/10 00:00:34;;;;;;;17.75;7.57;;;9.30;99.90;;;;;;5019853;28;20045;-80
2022/11/10 00:03:18;;;;;;;16.08;6.10;;;9.40;99.90;;;;;;5014094;28;20048;-80
2022/11/10 00:06:04;;;;;;;10.73;5.55;;;9.40;99.90;;;;;;5019543;28;20529;-80
2022/11/10 00:08:49;;;;;;;7.30;3.65;;;9.40;99.90;;;;;;5012675;28;20045;-79
2022/11/10 00:11:34;;;;;;;11.52;3.80;;;9.40;99.90;;;;;;5028422;28;20085;-80
2022/11/10 00:17:22;;;;;;;8.93;3.95;;;9.30;99.90;;;;;;5035205;28;20029;-80
2022/11/10 00:20:08;;;;;;;12.93;4.70;;;9.30;99.90;;;;;;5034487;28;20033;-80
2022/11/10 00:22:54;;;;;;;11.43;5.18;;;9.30;99.90;;;;;;5033587;28;20120;-80
2022/11/10 00:25:39;;;;;;;7.68;3.97;;;9.20;99.90;;;;;;5035103;28;20064;-80
2022/11/10 00:28:23;;;;;;;9.77;4.82;;;9.00;99.90;;;;;;5034740;28;20033;-80
2022/11/10 00:31:09;;;;;;;9.75;4.55;;;9.00;99.90;;;;;;5034400;28;20056;-80
2022/11/10 00:33:54;;;;;;;10.93;5.00;;;8.90;99.90;;;;;;5009397;28;20045;-80
2022/11/10 00:36:39;;;;;;;11.90;4.95;;;8.80;99.90;;;;;;5016063;28;20037;-80
2022/11/10 00:39:24;;;;;;;12.77;4.97;;;8.70;99.90;;;;;;5027694;28;20501;-79
2022/11/10 00:42:09;;;;;;;9.35;5.15;;;8.70;99.90;;;;;;5025881;28;20049;-79
2022/11/10 00:44:54;;;;;;;10.55;4.70;;;8.60;99.90;;;;;;5019915;28;20044;-79
2022/11/10 00:47:39;;;;;;;10.10;4.82;;;8.40;99.90;;;;;;5034689;28;20044;-79
2022/11/10 00:50:24;;;;;;;11.35;4.20;;;8.40;99.90;;;;;;5026391;28;20048;-79
2022/11/10 00:53:09;;;;;;;12.25;4.70;;;8.30;99.90;;;;;;5032360;28;20041;-80
2022/11/10 00:55:53;;;;;;;9.00;3.58;;;8.20;99.90;;;;;;5034570;28;20060;-79
2022/11/10 00:58:37;;;;;;;8.10;3.78;;;8.10;99.90;;;;;;5002228;28;20038;-79
2022/11/10 01:01:24;;;;;;;11.85;4.60;;;8.00;99.90;;;;;;5018126;28;20030;-79
2022/11/10 01:04:08;;;;;;;8.13;4.25;;;8.00;99.90;;;;;;5033554;28;20044;-79
2022/11/10 01:06:53;;;;;;;13.90;4.25;;;8.00;99.90;;;;;;5035724;28;20507;-79
2022/11/10 01:09:37;;;;;;;8.15;4.43;;;7.90;99.90;;;;;;5019408;28;20049;-80
2022/11/10 01:12:22;;;;;;;15.23;4.53;;;7.90;99.90;;;;;;5021626;28;20056;-79
2022/11/10 01:15:07;;;;;;;6.43;3.72;;;7.90;99.90;;;;;;5033755;28;20032;-79
2022/11/10 01:17:54;;;;;;;10.43;4.53;;;7.80;99.90;;;;;;5031474;28;20037;-80
2022/11/10 01:20:38;;;;;;;8.05;3.75;;;7.80;99.90;;;;;;5016533;28;20383;-79
2022/11/10 01:23:23;;;;;;;7.25;4.22;;;7.70;99.90;;;;;;5017490;28;20046;-79
2022/11/10 01:26:08;;;;;;;10.57;5.43;;;7.70;99.90;;;;;;5021101;28;20490;-79
2022/11/10 01:28:52;;;;;;;8.80;4.47;;;7.60;99.90;;;;;;5020005;28;20040;-79
2022/11/10 01:31:37;;;;;;;14.52;5.10;;;7.60;99.90;;;;;;5033859;28;20041;-80
2022/11/10 01:34:22;;;;;;;8.63;4.75;;;7.60;99.90;;;;;;5031800;28;20071;-80
2022/11/10 01:37:06;;;;;;;11.40;4.70;;;7.60;99.90;;;;;;5033319;28;20033;-80
2022/11/10 01:39:51;;;;;;;8.40;4.90;;;7.50;99.90;;;;;;5020640;28;20056;-80
2022/11/10 01:42:56;;;;;;;12.10;4.18;;;7.50;99.90;;;;;;5022830;28;20064;-80
2022/11/10 01:45:47;;;;;;;13.63;4.80;;;7.50;99.90;;;;;;5033766;28;20489;-79
2022/11/10 01:48:56;;;;;;;8.38;5.13;;;7.50;99.90;;;;;;5010475;28;20048;-79
2022/11/10 01:51:55;;;;;;;9.20;4.70;;;7.40;99.90;;;;;;5015104;28;20042;-79
2022/11/10 01:54:47;;;;;;;12.20;5.05;;;7.40;99.90;;;;;;5012971;28;20482;-79
2022/11/10 01:57:31;;;;;;;8.50;5.55;;;7.40;99.90;;;;;;5018320;28;20057;-79
2022/11/10 02:00:17;;;;;;;9.95;5.00;;;7.30;99.90;;;;;;5013607;28;20380;-79
2022/11/10 02:03:08;;;;;;;7.20;4.35;;;7.30;99.90;;;;;;5012570;28;20042;-80
2022/11/10 02:05:54;;;;;;;14.23;5.15;;;7.20;99.90;;;;;;5040350;28;20039;-79
2022/11/10 02:08:40;;;;;;;10.90;4.43;;;7.10;99.90;;;;;;5057359;28;20052;-80
2022/11/10 02:11:27;;;;;;;10.57;4.10;;;7.10;99.90;;;;;;5035685;28;20109;-80
2022/11/10 02:14:13;;;;;;;10.80;4.05;;;7.00;99.90;;;;;;5030998;28;20052;-80
2022/11/10 02:16:58;;;;;;;7.65;4.07;;;7.00;99.90;;;;;;5005665;28;20498;-79
2022/11/10 02:19:42;;;;;;;5.65;4.40;;;7.00;99.90;;;;;;5011840;28;20463;-79
2022/11/10 02:22:27;;;;;;;7.60;3.60;;;7.00;99.90;;;;;;5032459;28;20037;-79
2022/11/10 02:25:18;;;;;;;8.50;3.78;;;7.00;99.90;;;;;;5032425;28;20029;-79
2022/11/10 02:28:03;;;;;;;6.75;4.00;;;7.00;99.90;;;;;;5029589;28;20044;-80
2022/11/10 02:30:48;;;;;;;33.85;6.53;;;6.90;99.90;;;;;;5018337;28;20045;-79
2022/11/10 02:33:33;;;;;;;9.45;4.47;;;6.90;99.90;;;;;;5030788;28;20060;-79
2022/11/10 02:36:18;;;;;;;8.98;4.45;;;6.80;99.90;;;;;;5028712;28;20045;-79
2022/11/10 02:39:03;;;;;;;9.73;5.43;;;6.80;99.90;;;;;;5033036;28;20029;-80
2022/11/10 02:41:47;;;;;;;9.98;4.20;;;6.90;99.90;;;;;;5034043;28;20042;-79
2022/11/10 02:44:32;;;;;;;10.93;4.60;;;6.80;99.90;;;;;;5024810;28;20042;-79
2022/11/10 02:47:16;;;;;;;8.32;3.85;;;6.70;99.90;;;;;;5032204;28;20379;-79
2022/11/10 02:50:01;;;;;;;6.90;4.35;;;6.60;99.90;;;;;;5013861;28;20046;-79
2022/11/10 02:52:46;;;;;;;13.02;6.28;;;6.60;99.90;;;;;;5008037;28;20060;-79
2022/11/10 02:55:31;;;;;;;12.88;4.07;;;6.50;99.90;;;;;;5005217;28;20045;-79
2022/11/10 02:58:15;;;;;;;8.40;4.28;;;6.50;99.90;;;;;;5012722;28;20371;-80
2022/11/10 03:01:04;;;;;;;11.77;4.32;;;6.40;99.90;;;;;;5013668;28;20062;-79
2022/11/10 03:03:49;;;;;;;11.40;4.82;;;6.40;99.90;;;;;;5012022;28;20044;-79
2022/11/10 03:06:33;;;;;;;10.07;4.30;;;6.40;99.90;;;;;;5005087;28;20533;-79
2022/11/10 03:09:18;;;;;;;7.43;4.20;;;6.30;99.90;;;;;;5001615;28;20478;-79
2022/11/10 03:12:03;;;;;;;9.50;4.10;;;6.30;99.90;;;;;;5030154;28;20048;-79
2022/11/10 03:14:48;;;;;;;6.95;4.10;;;6.20;99.90;;;;;;5031863;28;20041;-79
2022/11/10 03:17:32;;;;;;;11.63;4.65;;;6.20;99.90;;;;;;5009085;28;20026;-79
2022/11/10 03:20:17;;;;;;;7.53;4.32;;;6.20;99.90;;;;;;5011872;28;20060;-79
2022/11/10 03:23:04;;;;;;;8.93;4.82;;;6.20;99.90;;;;;;5025355;28;20030;-79
2022/11/10 03:25:49;;;;;;;7.80;4.35;;;6.20;99.90;;;;;;5011936;28;20045;-80
2022/11/10 03:28:33;;;;;;;7.78;4.07;;;6.20;99.90;;;;;;5026190;28;20037;-79
2022/11/10 03:31:19;;;;;;;8.90;5.43;;;6.10;99.90;;;;;;5006747;28;20042;-79
2022/11/10 03:34:04;;;;;;;11.38;6.43;;;6.10;99.90;;;;;;5009477;28;20042;-79
2022/11/10 03:36:49;;;;;;;8.32;4.50;;;6.10;99.90;;;;;;5015031;28;20040;-79
2022/11/10 03:39:33;;;;;;;8.38;4.13;;;6.00;99.90;;;;;;5016160;28;20054;-78
2022/11/10 03:42:18;;;;;;;9.13;4.60;;;5.90;99.90;;;;;;5019091;28;20041;-79
2022/11/10 03:45:03;;;;;;;10.63;5.70;;;5.90;99.90;;;;;;5032150;28;20046;-79
2022/11/10 03:47:48;;;;;;;11.40;6.25;;;5.90;99.90;;;;;;5036667;28;20048;-79
2022/11/10 03:50:34;;;;;;;8.77;4.68;;;5.90;99.90;;;;;;5036059;28;20045;-79
2022/11/10 03:53:18;;;;;;;12.40;4.85;;;5.90;99.90;;;;;;5033597;28;20041;-79
2022/11/10 03:56:04;;;;;;;9.38;4.38;;;5.90;99.90;;;;;;5029540;28;20044;-79
2022/11/10 03:58:48;;;;;;;9.68;5.38;;;5.90;99.90;;;;;;5015106;28;20034;-78
2022/11/10 04:01:33;;;;;;;12.65;4.68;;;5.80;99.90;;;;;;5035388;28;20033;-79
2022/11/10 04:10:24;;;;;;;10.75;5.93;;;5.90;99.90;;;;;;5020040;28;20045;-79
2022/11/10 04:16:13;;;;;;;12.93;6.30;;;6.00;99.90;;;;;;5034927;28;20374;-79
2022/11/10 04:18:58;;;;;;;9.73;6.28;;;6.00;99.90;;;;;;5035984;28;20044;-79
2022/11/10 04:21:42;;;;;;;13.68;7.75;;;6.00;99.90;;;;;;5035222;28;20025;-79
2022/11/10 04:24:27;;;;;;;15.63;7.32;;;6.00;99.90;;;;;;5003961;28;20053;-79
2022/11/10 04:27:12;;;;;;;15.10;7.75;;;6.10;99.90;;;;;;5034929;28;20033;-79
2022/11/10 04:29:56;;;;;;;21.65;8.93;;;6.40;99.90;;;;;;5035379;28;20048;-79
2022/11/10 04:32:40;;;;;;;18.15;8.68;;;6.60;99.90;;;;;;5037402;28;20056;-79
2022/11/10 04:35:25;;;;;;;15.88;7.88;;;6.60;99.90;;;;;;5018195;28;20044;-79
2022/11/10 04:38:10;;;;;;;16.05;8.63;;;6.50;99.90;;;;;;5021265;28;20028;-79
2022/11/10 04:40:55;;;;;;;17.58;9.20;;;6.40;99.90;;;;;;5041160;28;20049;-79
2022/11/10 04:43:41;;;;;;;17.02;9.40;;;6.30;99.90;;;;;;5033202;28;20088;-79
2022/11/10 04:46:33;;;;;;;14.57;9.13;;;6.30;99.90;;;;;;5034292;28;20060;-79
2022/11/10 04:49:17;;;;;;;14.80;8.65;;;6.30;99.90;;;;;;5016196;28;20056;-79
2022/11/10 04:52:02;;;;;;;20.77;9.02;;;6.30;99.90;;;;;;5015603;28;20053;-79
2022/11/10 04:54:47;;;;;;;15.15;7.93;;;6.30;99.90;;;;;;5015462;28;20048;-79
2022/11/10 04:57:31;;;;;;;18.35;8.50;;;6.30;99.90;;;;;;5017514;28;20490;-79
2022/11/10 05:00:16;;;;;;;13.90;7.85;;;6.20;99.90;;;;;;5027563;28;20049;-79
2022/11/10 05:03:04;;;;;;;17.48;7.72;;;6.20;99.90;;;;;;5032767;28;20052;-79
2022/11/10 05:05:49;;;;;;;17.55;7.95;;;6.20;99.90;;;;;;5017025;28;20068;-78
2022/11/10 05:08:34;;;;;;;12.15;7.40;;;6.20;99.90;;;;;;5015442;28;20069;-79
2022/11/10 05:11:19;;;;;;;20.00;8.05;;;6.20;99.90;;;;;;5006556;28;20053;-78
2022/11/10 05:14:03;;;;;;;15.55;8.27;;;6.20;99.90;;;;;;5013655;28;20076;-79
2022/11/10 05:16:48;;;;;;;15.43;7.97;;;6.40;99.90;;;;;;5026626;28;20055;-78
2022/11/10 05:19:33;;;;;;;17.02;8.88;;;6.60;99.90;;;;;;5034149;28;20052;-77
2022/11/10 05:22:17;;;;;;;17.25;8.27;;;6.60;99.90;;;;;;5030190;28;20056;-78
2022/11/10 05:25:02;;;;;;;17.48;8.80;;;6.60;99.90;;;;;;5014925;28;20049;-78
2022/11/10 05:27:46;;;;;;;21.52;8.05;;;6.50;99.90;;;;;;5015141;28;20048;-77
2022/11/10 05:30:31;;;;;;;16.05;8.38;;;6.50;99.90;;;;;;5022904;28;20064;-78
2022/11/10 05:33:16;;;;;;;21.17;8.93;;;6.50;99.90;;;;;;5023643;28;20117;-78
2022/11/10 05:36:01;;;;;;;18.00;8.70;;;6.70;99.90;;;;;;5027375;28;20045;-77
2022/11/10 05:38:47;;;;;;;17.23;8.05;;;6.60;99.90;;;;;;5019187;28;20069;-77
2022/11/10 05:41:31;;;;;;;14.30;8.82;;;6.80;99.90;;;;;;5032859;28;20045;-78
2022/11/10 05:44:16;;;;;;;17.38;9.55;;;6.70;99.90;;;;;;5023567;28;20053;-77
2022/11/10 05:47:00;;;;;;;19.92;8.73;;;6.60;99.90;;;;;;5011998;28;20049;-78
2022/11/10 05:49:45;;;;;;;18.98;9.52;;;6.60;99.90;;;;;;5027062;28;20052;-77
2022/11/10 05:52:29;;;;;;;14.98;7.85;;;6.50;99.90;;;;;;5023043;28;20052;-78
2022/11/10 05:55:16;;;;;;;17.08;10.05;;;6.50;99.90;;;;;;5033014;28;20068;-78
2022/11/10 05:58:01;;;;;;;18.08;7.93;;;6.40;99.90;;;;;;5029627;28;20064;-78
2022/11/10 06:00:45;;;;;;;19.75;8.45;;;6.30;99.90;;;;;;5034493;28;20045;-78
2022/11/10 06:03:30;;;;;;;16.50;8.30;;;6.20;99.90;;;;;;5011553;28;20506;-78
2022/11/10 06:06:16;;;;;;;18.80;9.48;;;6.20;99.90;;;;;;5028985;28;20049;-79
2022/11/10 06:09:01;;;;;;;29.10;9.63;;;6.50;99.90;;;;;;5021383;28;20487;-78
2022/11/10 06:11:46;;;;;;;21.02;9.80;;;6.60;99.90;;;;;;5014211;28;20510;-78
2022/11/10 06:14:30;;;;;;;23.63;9.80;;;6.60;99.90;;;;;;5025328;28;20479;-79
2022/11/10 06:17:15;;;;;;;24.25;10.55;;;6.60;99.90;;;;;;5024634;28;20048;-79
2022/11/10 06:19:59;;;;;;;20.35;8.02;;;6.60;99.90;;;;;;5025489;28;20048;-76
2022/11/10 06:23:06;;;;;;;19.60;8.55;;;6.50;99.90;;;;;;5016515;28;20501;-80
2022/11/10 06:25:51;;;;;;;18.27;8.80;;;6.40;99.90;;;;;;5025750;28;20040;-80
2022/11/10 06:28:35;;;;;;;16.50;8.55;;;6.40;99.90;;;;;;5030559;28;20406;-80
2022/11/10 06:31:20;;;;;;;23.90;10.15;;;6.40;99.90;;;;;;5004900;28;20059;-80
2022/11/10 06:34:05;;;;;;;19.10;9.82;;;6.50;99.90;;;;;;5021757;28;20056;-80
2022/11/10 06:36:50;;;;;;;18.20;9.27;;;6.40;99.90;;;;;;5022273;28;20403;-80
2022/11/10 06:39:34;;;;;;;21.10;8.93;;;6.30;99.90;;;;;;5013401;28;20048;-80
2022/11/10 06:42:19;;;;;;;18.95;8.30;;;6.10;99.90;;;;;;4999358;28;20399;-80
2022/11/10 06:45:04;;;;;;;14.50;8.18;;;6.00;99.90;;;;;;5016102;28;20060;-81
2022/11/10 06:48:02;;;;;;;16.80;9.02;;;5.90;99.90;;;;;;5024778;28;20056;-80
2022/11/10 06:50:47;;;;;;;15.25;8.88;;;5.90;99.90;;;;;;5021219;28;20068;-81
2022/11/10 06:53:31;;;;;;;17.25;9.85;;;5.90;99.90;;;;;;5017144;28;20053;-81
2022/11/10 06:56:16;;;;;;;19.67;9.88;;;6.10;99.90;;;;;;5012545;28;20068;-81
2022/11/10 06:59:00;;;;;;;19.73;10.43;;;6.20;99.90;;;;;;5016958;28;20044;-81
2022/11/10 07:01:45;;;;;;;24.52;12.73;;;6.20;99.90;;;;;;5019487;28;20499;-78
2022/11/10 07:04:30;;;;;;;18.15;10.63;;;6.30;99.90;;;;;;5019543;28;20056;-82
2022/11/10 07:07:15;;;;;;;20.38;10.88;;;6.20;99.90;;;;;;5017787;28;20049;-81
2022/11/10 07:09:59;;;;;;;23.75;12.10;;;6.30;99.90;;;;;;5032363;28;20470;-81
2022/11/10 07:12:44;;;;;;;26.63;12.68;;;6.40;99.90;;;;;;5022777;28;20048;-81
2022/11/10 07:15:29;;;;;;;25.30;12.35;;;6.40;99.90;;;;;;5011602;28;20060;-80
2022/11/10 07:18:14;;;;;;;28.08;14.48;;;6.50;99.90;;;;;;5030904;28;20048;-81
2022/11/10 07:21:02;;;;;;;27.90;13.70;;;6.60;99.90;;;;;;5023197;28;20398;-81
2022/11/10 07:23:46;;;;;;;26.30;13.18;;;6.70;99.90;;;;;;5031329;28;20057;-81
2022/11/10 07:26:31;;;;;;;28.42;14.35;;;6.90;99.90;;;;;;5019250;28;20044;-81
2022/11/10 07:29:15;;;;;;;30.90;14.75;;;7.00;99.90;;;;;;5009744;28;20053;-82
2022/11/10 07:32:00;;;;;;;28.75;14.50;;;7.10;99.90;;;;;;5034906;28;20156;-82
2022/11/10 07:34:50;;;;;;;24.83;13.63;;;7.50;99.90;;;;;;5006404;28;20530;-80
2022/11/10 07:37:34;;;;;;;26.75;12.77;;;7.70;99.90;;;;;;5008639;28;20069;-81
2022/11/10 07:40:20;;;;;;;24.67;12.23;;;7.90;99.90;;;;;;5008412;28;20408;-81
2022/11/10 07:43:05;;;;;;;22.35;10.80;;;8.30;99.90;;;;;;5012209;28;20061;-81
2022/11/10 07:45:51;;;;;;;19.95;12.15;;;8.40;99.90;;;;;;5020509;28;20045;-81
2022/11/10 07:48:35;;;;;;;20.83;11.15;;;8.50;99.90;;;;;;5031802;28;20047;-81
2022/11/10 07:51:20;;;;;;;21.30;11.27;;;8.60;99.90;;;;;;5013722;28;20041;-81
2022/11/10 07:54:04;;;;;;;18.42;11.43;;;8.80;99.90;;;;;;5005589;28;20060;-81
2022/11/10 07:56:49;;;;;;;18.65;10.45;;;9.00;99.90;;;;;;5026293;28;20513;-81
2022/11/10 07:59:33;;;;;;;18.83;10.02;;;9.50;99.90;;;;;;5010614;28;20264;-81
2022/11/10 08:02:17;;;;;;;25.60;9.63;;;9.70;99.90;;;;;;5023931;28;20395;-80
2022/11/10 08:05:03;;;;;;;14.57;9.07;;;9.70;99.90;;;;;;5007399;28;20510;-79
2022/11/10 08:07:48;;;;;;;19.63;9.27;;;9.60;99.90;;;;;;5027401;28;20052;-79
2022/11/10 08:10:34;;;;;;;16.80;8.88;;;9.40;99.90;;;;;;5007089;28;20053;-80
2022/11/10 08:13:19;;;;;;;19.35;9.90;;;9.10;99.90;;;;;;5003544;28;20512;-82
2022/11/10 08:16:04;;;;;;;16.33;8.95;;;9.10;99.90;;;;;;5024652;28;20056;-81
2022/11/10 08:18:49;;;;;;;16.40;8.13;;;9.10;99.90;;;;;;5024176;28;20049;-81
2022/11/10 08:21:33;;;;;;;12.65;8.77;;;9.10;99.90;;;;;;5022559;28;20526;-81
2022/11/10 08:24:18;;;;;;;17.23;8.10;;;9.20;99.90;;;;;;5018690;28;20044;-81
2022/11/10 08:27:02;;;;;;;16.17;8.70;;;9.20;99.90;;;;;;5025394;28;20513;-82
2022/11/10 08:29:47;;;;;;;12.48;8.27;;;9.30;99.90;;;;;;5011834;28;20061;-82
2022/11/10 08:32:32;;;;;;;12.38;8.20;;;9.40;99.90;;;;;;5022631;28;20045;-82
2022/11/10 08:35:17;;;;;;;12.68;8.30;;;9.50;99.90;;;;;;5023368;28;20517;-82
2022/11/10 08:38:23;;;;;;;11.93;8.40;;;9.50;99.90;;;;;;5017004;28;20497;-81
2022/11/10 08:41:08;;;;;;;19.13;11.68;;;9.50;99.90;;;;;;5009910;28;20048;-81
2022/11/10 08:43:53;;;;;;;14.43;8.55;;;9.60;99.90;;;;;;5025279;28;20664;-82
2022/11/10 08:46:37;;;;;;;15.68;9.98;;;9.70;99.90;;;;;;5009255;28;20061;-81
2022/11/10 08:49:22;;;;;;;10.93;7.25;;;9.90;99.90;;;;;;5012220;28;20045;-82
2022/11/10 08:52:07;;;;;;;14.98;10.30;;;10.00;99.90;;;;;;5021933;28;20049;-82
2022/11/10 08:54:52;;;;;;;11.27;7.93;;;10.20;99.90;;;;;;5030931;28;20065;-81
2022/11/10 08:57:37;;;;;;;10.93;5.97;;;10.40;99.90;;;;;;5022866;28;20126;-81
2022/11/10 09:00:21;;;;;;;11.68;6.88;;;10.50;99.90;;;;;;5036665;28;20044;-80
2022/11/10 09:03:12;;;;;;;14.43;6.15;;;10.70;99.90;;;;;;5014231;28;20068;-80
2022/11/10 09:05:57;;;;;;;9.80;6.00;;;10.80;99.90;;;;;;5014865;28;20064;-79
2022/11/10 09:08:42;;;;;;;9.30;5.38;;;10.90;99.90;;;;;;5012479;28;20057;-77
2022/11/10 09:11:26;;;;;;;11.50;5.78;;;10.90;99.90;;;;;;5027486;28;20044;-80
2022/11/10 09:14:11;;;;;;;11.00;4.60;;;11.00;99.90;;;;;;5016330;28;20056;-79
2022/11/10 09:16:55;;;;;;;10.68;5.03;;;11.10;99.90;;;;;;5032270;28;20053;-80
2022/11/10 09:19:40;;;;;;;11.02;5.50;;;11.30;99.90;;;;;;5020863;28;20053;-80
2022/11/10 09:22:26;;;;;;;9.73;3.85;;;11.30;99.90;;;;;;5022292;28;20482;-79
2022/11/10 09:25:11;;;;;;;13.90;5.70;;;11.40;99.90;;;;;;5026980;28;20065;-78
2022/11/10 09:27:55;;;;;;;9.63;4.07;;;11.40;99.90;;;;;;5027746;28;20045;-79
2022/11/10 09:30:40;;;;;;;8.90;3.30;;;11.60;99.90;;;;;;4989821;28;20518;-81
2022/11/10 09:33:25;;;;;;;8.98;3.22;;;11.70;99.90;;;;;;5026841;28;20048;-80
2022/11/10 09:36:10;;;;;;;11.88;2.65;;;11.90;99.90;;;;;;5029893;28;20045;-79
2022/11/10 09:38:54;;;;;;;8.57;2.83;;;11.90;99.90;;;;;;5015853;28;20065;-81
2022/11/10 09:41:41;;;;;;;4.70;2.25;;;12.10;99.90;;;;;;5018507;28;20512;-81
2022/11/10 09:44:32;;;;;;;12.07;2.47;;;12.00;99.90;;;;;;5018701;28;20056;-80
2022/11/10 09:47:30;;;;;;;13.43;2.60;;;12.10;99.90;;;;;;5015990;28;20533;-80
2022/11/10 09:50:31;;;;;;;6.68;2.20;;;12.20;99.90;;;;;;5034056;28;20056;-79
2022/11/10 09:53:23;;;;;;;7.63;2.40;;;12.30;99.90;;;;;;5032987;28;20398;-80
2022/11/10 09:56:15;;;;;;;9.85;2.67;;;12.50;99.90;;;;;;5027631;28;20044;-80
2022/11/10 09:59:06;;;;;;;12.60;4.72;;;12.60;98.90;;;;;;5025323;28;20053;-80
2022/11/10 10:01:56;;;;;;;6.75;2.13;;;12.50;97.90;;;;;;5014227;28;20052;-81
2022/11/10 10:04:41;;;;;;;8.32;2.22;;;12.50;96.70;;;;;;5018367;28;20060;-79
2022/11/10 10:07:39;;;;;;;10.43;2.42;;;12.60;97.30;;;;;;5020557;28;20048;-80
2022/11/10 10:10:44;;;;;;;6.43;3.15;;;12.50;99.60;;;;;;5028154;28;20045;-81
2022/11/10 10:13:47;;;;;;;8.43;4.07;;;12.70;97.90;;;;;;5024341;28;20052;-80
2022/11/10 10:16:59;;;;;;;7.47;2.80;;;13.00;95.50;;;;;;5023134;28;20052;-80
2022/11/10 10:19:56;;;;;;;5.35;2.72;;;12.90;92.00;;;;;;5033300;28;20048;-81
2022/11/10 10:23:13;;;;;;;10.52;2.53;;;12.90;92.90;;;;;;5007365;28;20044;-82
2022/11/10 10:25:58;;;;;;;8.07;2.58;;;13.00;91.80;;;;;;5007281;28;20506;-80
2022/11/10 10:28:45;;;;;;;8.50;2.45;;;13.00;93.10;;;;;;5024362;28;20049;-79
2022/11/10 10:31:34;;;;;;;5.30;1.80;;;13.00;90.60;;;;;;5027123;28;20057;-80
2022/11/10 10:34:22;;;;;;;5.93;2.45;;;13.10;91.20;;;;;;5014144;28;20053;-80
2022/11/10 10:37:43;;;;;;;11.63;1.63;;;13.10;91.90;;;;;;5017452;28;20065;-80
2022/11/10 10:40:28;;;;;;;5.80;1.80;;;13.10;89.20;;;;;;5007638;28;20049;-81
2022/11/10 10:43:12;;;;;;;5.82;1.77;;;13.30;89.50;;;;;;5018138;28;20041;-81
2022/11/10 10:46:10;;;;;;;8.90;2.05;;;13.20;90.90;;;;;;5027266;28;20053;-81
2022/11/10 10:49:26;;;;;;;3.80;1.52;;;13.10;90.00;;;;;;5040363;28;20060;-80
2022/11/10 10:52:15;;;;;;;5.13;1.55;;;13.20;90.00;;;;;;5034474;28;20044;-81
2022/11/10 10:55:05;;;;;;;8.38;2.40;;;13.20;87.90;;;;;;5026889;28;20068;-80
2022/11/10 10:57:54;;;;;;;5.03;2.65;;;13.40;83.20;;;;;;5021824;28;20052;-80
2022/11/10 11:00:43;;;;;;;8.93;2.20;;;13.40;72.60;;;;;;5000873;28;20057;-80
2022/11/10 11:03:41;;;;;;;6.82;1.58;;;13.60;77.10;;;;;;5028672;28;20053;-80
2022/11/10 11:06:28;;;;;;;8.73;1.75;;;13.70;73.20;;;;;;5020026;28;20068;-80
2022/11/10 11:09:13;;;;;;;7.82;1.98;;;13.80;68.90;;;;;;5012472;28;20044;-79
2022/11/10 11:12:02;;;;;;;10.85;2.97;;;13.80;68.60;;;;;;5012637;28;20044;-80
2022/11/10 11:14:47;;;;;;;5.30;2.10;;;13.80;67.70;;;;;;5015276;28;20049;-80
2022/11/10 11:17:31;;;;;;;12.88;1.90;;;13.90;69.50;;;;;;5017214;28;20048;-81
2022/11/10 11:20:16;;;;;;;8.30;2.05;;;13.80;68.30;;;;;;5018774;28;20060;-80
2022/11/10 11:23:19;;;;;;;4.68;2.50;;;13.80;71.50;;;;;;5018541;28;20057;-80
2022/11/10 11:26:21;;;;;;;4.57;1.77;;;13.70;66.00;;;;;;5025283;28;20048;-80
2022/11/10 11:29:14;;;;;;;7.93;2.13;;;13.80;69.10;;;;;;5016396;28;20053;-80
2022/11/10 11:32:17;;;;;;;5.35;1.50;;;14.10;70.50;;;;;;5025953;28;20056;-81
2022/11/10 11:35:30;;;;;;;5.50;1.67;;;14.10;54.70;;;;;;5004409;28;20070;-79
2022/11/10 11:38:23;;;;;;;5.90;1.05;;;14.20;57.10;;;;;;5030686;28;20053;-80
2022/11/10 11:41:14;;;;;;;7.85;1.73;;;14.50;51.70;;;;;;5020822;28;20053;-81
2022/11/10 11:44:18;;;;;;;5.38;1.80;;;14.60;47.80;;;;;;5023091;28;20118;-80
2022/11/10 11:47:18;;;;;;;4.25;1.20;;;14.30;50.30;;;;;;5014648;28;20049;-80
2022/11/10 11:50:29;;;;;;;7.00;1.95;;;14.00;53.70;;;;;;5009148;28;20506;-80
2022/11/10 11:53:51;;;;;;;5.38;1.75;;;14.10;45.90;;;;;;4993906;28;20103;-80
2022/11/10 11:56:43;;;;;;;5.18;1.42;;;14.20;49.90;;;;;;5025653;28;20060;-80
2022/11/10 12:00:01;;;;;;;7.15;1.67;;;14.20;52.60;;;;;;5015597;28;20049;-80
2022/11/10 12:03:02;;;;;;;6.05;1.40;;;14.40;48.00;;;;;;5008180;28;20044;-80
2022/11/10 12:05:59;;;;;;;4.10;1.23;;;14.50;46.30;;;;;;5025888;28;20494;-80
2022/11/10 12:08:54;;;;;;;5.97;1.42;;;14.70;45.10;;;;;;5035294;28;20060;-80
2022/11/10 12:11:51;;;;;;;4.72;1.83;;;14.70;45.00;;;;;;5007574;28;20040;-82
2022/11/10 12:15:03;;;;;;;5.05;1.23;;;14.60;49.70;;;;;;5014045;28;20048;-80
2022/11/10 12:18:14;;;;;;;6.97;2.58;;;14.70;42.00;;;;;;5032823;28;20057;-80
2022/11/10 12:21:06;;;;;;;15.00;2.67;;;14.80;42.10;;;;;;5025372;28;20125;-81
2022/11/10 12:24:03;;;;;;;7.82;1.45;;;15.00;41.90;;;;;;5017348;28;20048;-80
2022/11/10 12:27:10;;;;;;;4.85;1.83;;;14.90;45.60;;;;;;5024733;28;20501;-80
2022/11/10 12:30:03;;;;;;;9.13;2.72;;;14.60;44.60;;;;;;5011044;28;20525;-81
2022/11/10 12:32:54;;;;;;;10.45;2.25;;;14.40;50.50;;;;;;5019242;28;20590;-78
2022/11/10 12:35:40;;;;;;;;;;;14.40;49.00;;;;;;5016330;28;20048;-80
2022/11/10 12:38:35;;;;;;;6.80;2.17;;;14.60;46.10;;;;;;5021635;28;19920;-80
2022/11/10 12:41:20;;;;;;;5.30;1.77;;;14.80;40.70;;;;;;5035447;28;20041;-82
2022/11/10 12:44:30;;;;;;;5.47;1.52;;;15.10;42.00;;;;;;5027503;28;20057;-80
2022/11/10 12:47:19;;;;;;;10.77;3.20;;;15.20;35.80;;;;;;5024596;28;20497;-80
2022/11/10 12:50:22;;;;;;;8.00;1.80;;;15.30;29.40;;;;;;5035996;28;20052;-80
2022/11/10 12:53:15;;;;;;;8.60;1.70;;;15.20;22.80;;;;;;5008781;28;20363;-80
2022/11/10 12:56:07;;;;;;;6.63;1.45;;;15.20;25.70;;;;;;5016110;28;20053;-80
2022/11/10 12:59:20;;;;;;;6.30;1.17;;;14.90;26.80;;;;;;5023232;28;20056;-79
2022/11/10 13:02:22;;;;;;;6.50;1.67;;;15.00;27.10;;;;;;5014027;28;20375;-80
2022/11/10 13:05:13;;;;;;;5.93;2.47;;;15.10;28.70;;;;;;5030597;28;20056;-80
2022/11/10 13:08:16;;;;;;;7.10;1.58;;;15.20;22.60;;;;;;5016849;28;20048;-80
2022/11/10 13:11:04;;;;;;;5.78;1.60;;;15.30;19.60;;;;;;5028505;28;20065;-80
2022/11/10 13:13:52;;;;;;;7.28;1.90;;;15.30;20.70;;;;;;5015775;28;20045;-81
2022/11/10 13:16:37;;;;;;;7.75;1.95;;;15.40;19.80;;;;;;5034566;28;20053;-80
2022/11/10 13:19:22;;;;;;;8.20;1.98;;;15.30;17.80;;;;;;5021133;28;20372;-81
2022/11/10 13:22:26;;;;;;;5.82;1.70;;;15.30;18.90;;;;;;5018791;28;20053;-80
2022/11/10 13:25:36;;;;;;;7.50;2.50;;;15.40;21.10;;;;;;5008157;28;20052;-80
2022/11/10 13:29:00;;;;;;;3.08;1.35;;;15.40;21.40;;;;;;5021565;28;20045;-80
2022/11/10 13:31:53;;;;;;;5.85;0.95;;;15.30;18.60;;;;;;4985528;28;20410;-81
2022/11/10 13:34:39;;;;;;;5.68;1.48;;;15.40;21.20;;;;;;5034143;28;20049;-80
2022/11/10 13:37:33;;;;;;;8.25;1.38;;;15.50;18.90;;;;;;5027644;28;20052;-80
2022/11/10 13:40:23;;;;;;;3.55;1.00;;;15.50;17.50;;;;;;5026626;28;20049;-80
2022/11/10 13:43:17;;;;;;;7.90;1.50;;;15.50;19.10;;;;;;5026422;28;20052;-80
2022/11/10 13:46:04;;;;;;;7.57;1.33;;;15.40;19.10;;;;;;5020405;28;20045;-81
2022/11/10 13:49:15;;;;;;;4.68;1.73;;;15.20;19.70;;;;;;5027313;28;20049;-79
2022/11/10 13:52:12;;;;;;;12.40;2.45;;;15.20;24.20;;;;;;5033384;28;20068;-81
2022/11/10 13:55:39;;;;;;;7.47;1.55;;;15.10;24.30;;;;;;5033762;28;20403;-81
2022/11/10 13:58:28;;;;;;;3.38;1.00;;;15.20;22.00;;;;;;5010857;28;20517;-80
2022/11/10 14:01:15;;;;;;;5.95;1.85;;;15.30;21.00;;;;;;5033532;28;20040;-81
2022/11/10 14:04:01;;;;;;;6.28;1.42;;;15.40;20.10;;;;;;5019935;28;20052;-81
2022/11/10 14:06:50;;;;;;;4.45;1.45;;;15.30;21.50;;;;;;5003954;28;20053;-80
2022/11/10 14:09:40;;;;;;;3.67;1.60;;;15.30;22.10;;;;;;5028159;28;20040;-81
2022/11/10 14:12:49;;;;;;;5.43;1.30;;;15.20;20.70;;;;;;5016122;28;20525;-81
2022/11/10 14:15:42;;;;;;;6.93;1.80;;;15.20;23.40;;;;;;5020172;28;20382;-81
2022/11/10 14:18:38;;;;;;;9.27;1.65;;;15.10;27.70;;;;;;5030452;28;20506;-81
2022/11/10 14:21:48;;;;;;;7.82;1.75;;;15.10;32.00;;;;;;5015445;28;20063;-85
2022/11/10 14:24:38;;;;;;;5.95;1.02;;;15.20;27.00;;;;;;5020283;28;20053;-81
2022/11/10 14:27:32;;;;;;;6.95;1.20;;;15.20;19.20;;;;;;5014607;28;20049;-80
2022/11/10 14:30:28;;;;;;;11.05;2.40;;;15.10;20.00;;;;;;5025509;28;20061;-80
2022/11/10 14:33:14;;;;;;;4.07;1.58;;;15.10;24.00;;;;;;5022252;28;20045;-80
2022/11/10 14:36:04;;;;;;;5.03;1.60;;;15.20;21.70;;;;;;5009029;28;20056;-80
2022/11/10 14:38:51;;;;;;;4.32;1.27;;;15.30;23.50;;;;;;5027870;28;20041;-81
2022/11/10 14:41:44;;;;;;;3.55;1.27;;;15.30;22.60;;;;;;5016472;28;20765;-81
2022/11/10 14:44:31;;;;;;;9.35;1.85;;;15.30;17.30;;;;;;5000523;28;20051;-80
2022/11/10 14:47:29;;;;;;;3.50;1.67;;;15.30;19.90;;;;;;5022876;28;20049;-80
2022/11/10 14:50:17;;;;;;;8.05;1.38;;;15.30;25.20;;;;;;5007449;28;20428;-80
2022/11/10 14:53:28;;;;;;;4.53;1.15;;;15.30;25.40;;;;;;5015847;28;20494;-81